Time;durP1;ratioP1;P1;durP2;ratioP2;P2;SDS_P1;SDS_P2;PMS_P1;PMS_P2;Temp;Humidity;BMP_temperature;BMP_pressure;BME280_temperature;BME280_humidity;BME280_pressure;Samples;Min_cycle;Max_cycle;Signal;HPM_P1;HPM_P2
2023/03/19 00:00:26;;;;;;;;;7.00;7.00;;;;;12.18;80.01;100976.38;5050657;28;10610;-67
2023/03/19 00:02:52;;;;;;;;;8.00;6.00;;;;;12.18;79.86;100980.94;5029666;28;9869;-66
2023/03/19 00:05:19;;;;;;;;;7.00;7.00;;;;;12.20;80.02;100979.72;5030600;28;10137;-67
2023/03/19 00:07:46;;;;;;;;;6.75;6.75;;;;;12.18;79.71;100986.34;5044213;28;10089;-66
2023/03/19 00:10:12;;;;;;;;;9.75;7.75;;;;;12.20;80.05;100993.19;5050710;28;10093;-66
2023/03/19 00:12:39;;;;;;;;;8.00;8.00;;;;;12.22;79.78;100995.69;5050493;28;9975;-67
2023/03/19 00:15:07;;;;;;;;;11.50;11.25;;;;;12.20;80.02;100992.38;5049102;28;9891;-68
2023/03/19 00:17:34;;;;;;;;;6.50;6.50;;;;;12.18;79.91;100991.72;5050479;28;10229;-68
2023/03/19 00:20:01;;;;;;;;;7.25;6.50;;;;;12.20;80.21;100995.91;5032753;28;10134;-67
2023/03/19 00:22:27;;;;;;;;;10.00;9.00;;;;;12.22;80.19;101001.91;5050346;28;10071;-68
2023/03/19 00:24:54;;;;;;;;;13.25;10.75;;;;;12.17;79.63;100995.47;5050195;28;10902;-67
2023/03/19 00:27:20;;;;;;;;;13.75;10.00;;;;;12.17;80.10;101007.09;5049907;28;10774;-68
2023/03/19 00:29:47;;;;;;;;;11.75;9.00;;;;;12.16;80.22;100991.94;5032746;28;10159;-67
2023/03/19 00:32:14;;;;;;;;;10.00;10.00;;;;;12.19;80.44;100998.78;5049795;28;10065;-67
2023/03/19 00:34:42;;;;;;;;;15.25;11.50;;;;;12.15;80.46;101001.03;5032900;28;10169;-67
2023/03/19 00:37:08;;;;;;;;;9.00;9.00;;;;;12.17;80.42;100999.00;5012919;28;10243;-66
2023/03/19 00:39:35;;;;;;;;;12.00;9.75;;;;;12.17;80.40;101007.09;5021042;28;10947;-67
2023/03/19 00:42:01;;;;;;;;;9.00;8.75;;;;;12.17;80.40;101009.78;5050355;28;10057;-67
2023/03/19 00:44:28;;;;;;;;;8.00;8.00;;;;;12.17;80.61;101006.25;5031835;28;10159;-67
2023/03/19 00:46:55;;;;;;;;;8.75;7.50;;;;;12.18;80.54;101008.75;5031614;28;10357;-68
2023/03/19 00:49:21;;;;;;;;;10.25;9.75;;;;;12.16;80.26;101015.41;5032565;28;10058;-67
2023/03/19 00:51:47;;;;;;;;;12.50;12.50;;;;;12.13;80.40;101016.63;5016220;28;10174;-68
2023/03/19 00:54:14;;;;;;;;;10.25;9.50;;;;;12.10;80.72;101017.84;5032083;28;10212;-68
2023/03/19 00:56:41;;;;;;;;;13.25;11.50;;;;;12.10;80.62;101020.53;5032245;28;10168;-68
2023/03/19 00:59:07;;;;;;;;;8.25;8.25;;;;;12.08;80.62;101009.13;5050072;28;10168;-67
2023/03/19 01:01:34;;;;;;;;;12.00;11.75;;;;;12.03;80.73;101011.59;5049949;28;10084;-67
2023/03/19 01:04:00;;;;;;;;;11.25;8.75;;;;;12.04;80.75;101015.13;5032345;28;10198;-67
2023/03/19 01:06:27;;;;;;;;;9.00;9.00;;;;;12.01;80.87;101012.81;5031957;28;10164;-68
2023/03/19 01:08:53;;;;;;;;;9.50;9.50;;;;;12.01;81.02;101012.81;5032091;28;10093;-68
2023/03/19 01:11:20;;;;;;;;;8.00;8.00;;;;;12.05;81.11;101016.78;5048471;28;10178;-68
2023/03/19 01:13:47;;;;;;;;;8.00;8.00;;;;;12.06;81.09;101018.44;5045403;28;10216;-68
2023/03/19 01:16:14;;;;;;;;;9.00;8.50;;;;;12.04;80.57;101015.13;5026662;28;10063;-68
2023/03/19 01:18:41;;;;;;;;;10.75;10.00;;;;;12.03;80.64;101014.31;5049778;28;10011;-68
2023/03/19 01:21:07;;;;;;;;;12.50;11.50;;;;;12.02;80.70;101012.63;5049988;28;10093;-68
2023/03/19 01:23:40;;;;;;;;;16.75;13.25;;;;;12.03;80.55;101014.31;5012437;28;10154;-68
2023/03/19 01:26:07;;;;;;;;;18.25;17.00;;;;;12.02;80.67;101009.09;5030167;28;11086;-67
2023/03/19 01:28:34;;;;;;;;;12.25;12.25;;;;;12.00;80.39;101012.00;5049701;28;10315;-67
2023/03/19 01:31:05;;;;;;;;;26.25;19.25;;;;;11.95;80.28;101013.59;5028194;28;10232;-68
2023/03/19 01:33:50;;;;;;;;;21.00;21.00;;;;;11.94;80.54;101017.34;5029356;28;10407;-68
2023/03/19 01:36:35;;;;;;;;;17.50;15.00;;;;;11.95;80.77;101014.47;5033972;28;10534;-68
2023/03/19 01:39:04;;;;;;;;;16.25;15.00;;;;;11.96;80.63;101007.19;5034438;28;10412;-67
2023/03/19 01:41:31;;;;;;;;;16.50;15.00;;;;;11.96;80.60;101009.91;5035601;28;10377;-68
2023/03/19 01:44:35;;;;;;;;;13.00;12.25;;;;;11.94;80.73;101011.94;5032087;28;10454;-68
2023/03/19 01:47:35;;;;;;;;;17.00;14.00;;;;;11.89;80.59;101012.53;5048900;28;11142;-68
2023/03/19 01:50:37;;;;;;;;;19.50;14.00;;;;;11.87;80.66;101006.53;5052655;28;10473;-68
2023/03/19 01:53:23;;;;;;;;;15.25;14.25;;;;;11.89;81.10;101015.25;5031963;28;10326;-68
2023/03/19 01:56:02;;;;;;;;;22.00;21.75;;;;;11.87;80.96;101012.75;5015533;28;10333;-68
2023/03/19 01:58:55;;;;;;;;;21.25;16.25;;;;;11.88;81.09;101008.19;5032280;28;10573;-67
2023/03/19 02:01:38;;;;;;;;;25.00;22.25;;;;;11.84;80.70;101015.00;5019030;28;10572;-67
2023/03/19 02:04:06;;;;;;;;;22.00;19.75;;;;;11.83;80.83;101019.59;5034874;28;11458;-68
2023/03/19 02:06:35;;;;;;;;;19.00;17.75;;;;;11.81;80.85;101024.28;5034860;28;10695;-67
2023/03/19 02:09:02;;;;;;;;;23.50;19.75;;;;;11.80;80.77;101027.19;5035738;28;10486;-68
2023/03/19 02:11:29;;;;;;;;;25.75;21.50;;;;;11.76;80.96;101015.97;5052658;28;10637;-67
2023/03/19 02:13:56;;;;;;;;;15.25;15.25;;;;;11.74;80.87;101014.50;5018904;28;10494;-67
2023/03/19 02:16:22;;;;;;;;;20.25;18.25;;;;;11.69;81.10;101012.38;5050341;28;10478;-68
2023/03/19 02:18:49;;;;;;;;;28.50;18.25;;;;;11.67;80.95;101014.47;5031597;28;10565;-68
2023/03/19 02:21:18;;;;;;;;;19.75;16.00;;;;;11.67;81.20;101021.69;5050501;28;10564;-68
2023/03/19 02:23:56;;;;;;;;;22.00;18.25;;;;;11.68;81.12;101026.91;5035012;28;10335;-67
2023/03/19 02:26:41;;;;;;;;;18.25;15.75;;;;;11.66;80.93;101028.13;5050440;28;10695;-67
2023/03/19 02:29:08;;;;;;;;;19.00;15.75;;;;;11.62;80.91;101028.50;5034237;28;10491;-68
2023/03/19 02:31:35;;;;;;;;;19.75;16.00;;;;;11.62;80.59;101019.59;5034230;28;10570;-67
2023/03/19 02:34:12;;;;;;;;;18.00;16.75;;;;;11.59;80.52;101025.41;5018651;28;10649;-67
2023/03/19 02:36:47;;;;;;;;;17.00;16.00;;;;;11.53;80.39;101032.38;5052194;28;10724;-68
2023/03/19 02:39:25;;;;;;;;;21.00;20.25;;;;;11.50;80.36;101027.38;5034020;28;10411;-67
2023/03/19 02:41:53;;;;;;;;;20.50;20.00;;;;;11.43;79.92;101028.38;5052338;28;10393;-68
2023/03/19 02:44:20;;;;;;;;;24.25;20.50;;;;;11.41;80.22;101033.97;5034226;28;10706;-67
2023/03/19 02:46:49;;;;;;;;;20.25;18.50;;;;;11.36;80.11;101033.72;5018419;28;11236;-68
2023/03/19 02:49:16;;;;;;;;;27.25;18.75;;;;;11.26;79.83;101035.88;5051863;28;10575;-66
2023/03/19 02:51:42;;;;;;;;;21.25;18.75;;;;;11.23;80.03;101033.59;5030671;28;10813;-68
2023/03/19 02:54:08;;;;;;;;;17.25;16.50;;;;;11.21;79.77;101031.09;5036741;28;10527;-68
2023/03/19 02:56:35;;;;;;;;;23.00;17.00;;;;;11.21;80.06;101038.34;5051905;28;10597;-68
2023/03/19 02:59:03;;;;;;;;;12.00;12.00;;;;;11.21;79.64;101035.66;5034565;28;10653;-68
2023/03/19 03:01:30;;;;;;;;;20.00;18.75;;;;;11.18;79.34;101039.59;5034318;28;10498;-67
2023/03/19 03:03:57;;;;;;;;;16.75;15.00;;;;;11.18;79.24;101044.97;5051190;28;10821;-68
2023/03/19 03:06:23;;;;;;;;;24.00;20.75;;;;;11.18;79.49;101046.81;5051609;28;10597;-68
2023/03/19 03:08:50;;;;;;;;;24.00;19.00;;;;;11.14;79.27;101041.81;5043616;28;10652;-67
2023/03/19 03:11:17;;;;;;;;;17.75;17.00;;;;;11.14;78.79;101032.91;5051153;28;10788;-68
2023/03/19 03:13:43;;;;;;;;;20.50;16.75;;;;;11.16;78.98;101035.41;5034006;28;10638;-68
2023/03/19 03:16:10;;;;;;;;;21.50;18.00;;;;;11.14;78.84;101031.06;5051728;28;10559;-67
2023/03/19 03:18:37;;;;;;;;;17.75;14.75;;;;;11.12;78.57;101037.66;5050491;28;10567;-67
2023/03/19 03:21:03;;;;;;;;;20.50;16.00;;;;;11.10;78.96;101042.38;5045263;28;10570;-68
2023/03/19 03:23:30;;;;;;;;;22.50;19.25;;;;;11.09;78.71;101036.16;5050910;28;10710;-67
2023/03/19 03:25:58;;;;;;;;;24.00;22.00;;;;;11.06;78.82;101038.41;5033408;28;10619;-68
2023/03/19 03:28:25;;;;;;;;;21.00;16.50;;;;;11.05;78.65;101040.25;5033235;28;10946;-67
2023/03/19 03:30:57;;;;;;;;;20.75;19.25;;;;;11.00;78.93;101045.41;5033888;28;10777;-67
2023/03/19 03:33:24;;;;;;;;;22.75;18.00;;;;;10.97;78.95;101042.25;5051372;28;10800;-68
2023/03/19 03:35:51;;;;;;;;;16.00;12.75;;;;;10.95;79.01;101037.06;5033734;28;10691;-67
2023/03/19 03:38:17;;;;;;;;;18.25;15.00;;;;;10.95;78.56;101041.63;5050949;28;10607;-67
2023/03/19 03:40:44;;;;;;;;;18.50;18.25;;;;;10.93;78.67;101044.50;5050737;28;10733;-67
2023/03/19 03:43:10;;;;;;;;;12.50;12.50;;;;;10.93;78.91;101049.06;5029956;28;10557;-68
2023/03/19 03:45:38;;;;;;;;;16.50;16.25;;;;;10.89;78.86;101044.03;5045556;28;10618;-66
2023/03/19 03:48:06;;;;;;;;;24.50;17.00;;;;;10.87;78.70;101043.41;5033109;28;10746;-67
2023/03/19 03:50:32;;;;;;;;;19.75;15.00;;;;;10.87;78.93;101040.72;5051311;28;10655;-67
2023/03/19 03:53:04;;;;;;;;;21.00;18.50;;;;;10.83;78.55;101047.50;5029979;28;10547;-67
2023/03/19 03:55:31;;;;;;;;;15.25;15.00;;;;;10.82;78.55;101042.34;5024740;28;10623;-68
2023/03/19 03:57:58;;;;;;;;;23.50;17.75;;;;;10.82;78.36;101043.16;5032449;28;10542;-68
2023/03/19 04:00:25;;;;;;;;;21.25;18.75;;;;;10.79;78.40;101038.16;5031393;28;10805;-68
2023/03/19 04:02:52;;;;;;;;;16.75;14.50;;;;;10.77;78.39;101034.78;5032503;28;10701;-67
2023/03/19 04:05:18;;;;;;;;;17.00;14.75;;;;;10.72;78.75;101039.94;5032897;28;10641;-68
2023/03/19 04:07:45;;;;;;;;;22.75;17.00;;;;;10.71;78.79;101040.13;5039520;28;10631;-68
2023/03/19 04:10:14;;;;;;;;;13.75;13.75;;;;;10.68;78.70;101051.28;5032777;28;10636;-68
2023/03/19 04:12:40;;;;;;;;;11.00;7.75;;;;;10.65;78.78;101044.41;5050424;28;10613;-67
2023/03/19 04:15:09;;;;;;;;;16.50;14.00;;;;;10.63;78.78;101052.69;5032321;28;10602;-67
2023/03/19 04:17:39;;;;;;;;;16.25;14.75;;;;;10.63;78.99;101046.47;5032650;28;10720;-68
2023/03/19 04:20:06;;;;;;;;;15.75;15.75;;;;;10.65;79.32;101055.16;5033063;28;10613;-68
2023/03/19 04:22:33;;;;;;;;;19.25;16.75;;;;;10.62;79.00;101053.72;5032354;28;11337;-67
2023/03/19 04:25:00;;;;;;;;;20.75;16.50;;;;;10.60;78.97;101049.53;5032911;28;10536;-68
2023/03/19 04:27:26;;;;;;;;;21.75;11.50;;;;;10.57;79.17;101050.75;5029083;28;10772;-67
2023/03/19 04:29:53;;;;;;;;;24.00;21.75;;;;;10.57;79.25;101058.84;5045713;28;10720;-67
2023/03/19 04:32:20;;;;;;;;;22.25;21.50;;;;;10.52;79.13;101061.22;5039459;28;10736;-68
2023/03/19 04:34:47;;;;;;;;;18.00;16.00;;;;;10.54;79.80;101063.75;5012755;28;11884;-67
2023/03/19 04:37:13;;;;;;;;;22.00;19.50;;;;;10.52;79.54;101061.22;5029106;28;10790;-68
2023/03/19 04:39:46;;;;;;;;;21.00;17.75;;;;;10.55;79.60;101060.03;5032617;28;10680;-67
2023/03/19 04:42:13;;;;;;;;;18.75;17.25;;;;;10.57;79.40;101064.22;5029034;28;10919;-67
2023/03/19 04:44:46;;;;;;;;;25.25;17.50;;;;;10.50;79.05;101065.97;5012790;28;10843;-68
2023/03/19 04:47:12;;;;;;;;;25.75;18.50;;;;;10.49;79.11;101069.72;5021604;28;11652;-68
2023/03/19 04:49:48;;;;;;;;;26.00;21.50;;;;;10.49;79.67;101066.16;5032629;28;10720;-68
2023/03/19 04:52:17;;;;;;;;;30.50;29.25;;;;;10.43;79.51;101073.13;5015765;28;11055;-67
2023/03/19 04:54:44;;;;;;;;;26.25;24.75;;;;;10.40;79.70;101077.03;5032245;28;10990;-68
2023/03/19 04:57:11;;;;;;;;;26.00;23.00;;;;;10.43;79.84;101075.00;5015644;28;11129;-68
2023/03/19 04:59:39;;;;;;;;;26.25;22.50;;;;;10.39;79.58;101075.34;5032332;28;10811;-68
2023/03/19 05:02:06;;;;;;;;;24.50;23.25;;;;;10.37;79.91;101085.50;5012292;28;10855;-68
2023/03/19 05:04:34;;;;;;;;;31.25;26.50;;;;;10.35;80.00;101086.69;5037761;28;10928;-67
2023/03/19 05:07:06;;;;;;;;;31.25;28.00;;;;;10.34;80.15;101096.63;5014895;28;10895;-68
2023/03/19 05:09:33;;;;;;;;;31.75;30.75;;;;;10.33;79.85;101089.56;5033130;28;10938;-67
2023/03/19 05:12:00;;;;;;;;;44.25;31.75;;;;;10.24;79.75;101096.03;5016878;28;11072;-68
2023/03/19 05:14:32;;;;;;;;;36.25;32.75;;;;;10.25;80.11;101091.50;5036150;28;11286;-67
2023/03/19 05:17:20;;;;;;;;;36.50;32.75;;;;;10.19;80.13;101098.44;5032701;28;11111;-67
2023/03/19 05:20:08;;;;;;;;;37.75;31.25;;;;;10.14;80.20;101098.16;5035701;28;11275;-67
2023/03/19 05:22:36;;;;;;;;;34.50;30.00;;;;;10.21;80.87;101096.41;5032518;28;11234;-66
2023/03/19 05:25:03;;;;;;;;;37.25;34.75;;;;;10.23;80.22;101093.53;5043665;28;12021;-68
2023/03/19 05:27:30;;;;;;;;;39.75;31.50;;;;;10.23;80.00;101104.28;5027679;28;11763;-67
2023/03/19 05:30:04;;;;;;;;;39.75;26.50;;;;;10.26;80.17;101102.09;5036003;28;11234;-68
2023/03/19 05:32:43;;;;;;;;;38.75;30.75;;;;;10.22;80.11;101098.06;5032556;28;11133;-67
2023/03/19 05:35:17;;;;;;;;;39.00;33.75;;;;;10.20;80.28;101104.66;5024668;28;12003;-67
2023/03/19 05:37:45;;;;;;;;;42.00;33.25;;;;;10.24;80.14;101101.41;5033950;28;11213;-67
2023/03/19 05:40:12;;;;;;;;;35.75;32.25;;;;;10.24;80.28;101108.66;5035302;28;11124;-68
2023/03/19 05:42:41;;;;;;;;;39.00;34.25;;;;;10.26;80.24;101110.16;5032413;28;11210;-68
2023/03/19 05:45:08;;;;;;;;;41.00;32.50;;;;;10.25;80.36;101116.59;5033950;28;11122;-68
2023/03/19 05:47:47;;;;;;;;;26.00;22.50;;;;;10.26;79.73;101118.25;5032284;28;11107;-68
2023/03/19 05:50:14;;;;;;;;;42.25;33.75;;;;;10.28;80.32;101121.56;5018809;28;12074;-68
2023/03/19 05:52:50;;;;;;;;;41.50;36.50;;;;;10.30;80.20;101130.31;5035521;28;11196;-67
2023/03/19 05:55:17;;;;;;;;;44.00;35.50;;;;;10.30;80.06;101132.16;5035501;28;12105;-67
2023/03/19 05:57:49;;;;;;;;;45.00;41.00;;;;;10.22;79.85;101137.59;5052475;28;11314;-68
2023/03/19 06:00:19;;;;;;;;;43.50;37.25;;;;;10.19;80.34;101141.47;5034013;28;11595;-68
2023/03/19 06:02:46;;;;;;;;;41.00;34.00;;;;;10.16;80.58;101141.84;5035433;28;12253;-68
2023/03/19 06:05:31;;;;;;;;;44.25;40.00;;;;;10.16;80.31;101141.84;5053533;28;11298;-67
2023/03/19 06:08:05;;;;;;;;;41.25;34.25;;;;;10.17;80.76;101154.31;5035233;28;11600;-66
2023/03/19 06:10:47;;;;;;;;;44.50;38.00;;;;;10.15;80.36;101154.47;5035218;28;11190;-68
2023/03/19 06:13:14;;;;;;;;;40.25;34.00;;;;;10.16;80.76;101149.91;5034298;28;11496;-68
2023/03/19 06:15:51;;;;;;;;;44.00;35.50;;;;;10.07;80.46;101143.78;5052114;28;11190;-67
2023/03/19 06:18:40;;;;;;;;;43.75;31.00;;;;;10.06;80.52;101138.59;5032030;28;11497;-68
2023/03/19 06:21:10;;;;;;;;;45.25;37.75;;;;;10.04;80.52;101146.00;5016083;28;11311;-68
2023/03/19 06:23:36;;;;;;;;;39.00;31.00;;;;;10.00;80.95;101144.69;5034030;28;11602;-67
2023/03/19 06:26:05;;;;;;;;;37.75;29.50;;;;;10.03;81.07;101155.09;5034574;28;11370;-68
2023/03/19 06:28:40;;;;;;;;;33.75;31.25;;;;;10.02;80.85;101150.75;5034333;28;11869;-68
2023/03/19 06:31:08;;;;;;;;;35.50;33.25;;;;;10.03;80.89;101155.94;5034444;28;11494;-67
2023/03/19 06:33:55;;;;;;;;;42.75;38.25;;;;;10.01;80.78;101162.53;5015277;28;11473;-68
2023/03/19 06:36:26;;;;;;;;;40.75;36.25;;;;;9.98;81.18;101161.03;5037044;28;11500;-68
2023/03/19 06:38:53;;;;;;;;;43.50;34.75;;;;;10.00;80.94;101171.59;5018287;28;11487;-68
2023/03/19 06:41:20;;;;;;;;;48.00;38.50;;;;;9.98;81.30;101181.72;5052142;28;11501;-67
2023/03/19 06:43:48;;;;;;;;;40.00;36.25;;;;;9.91;80.94;101178.91;5034679;28;11610;-68
2023/03/19 06:46:15;;;;;;;;;41.25;32.00;;;;;9.94;81.50;101183.94;5034380;28;11611;-67
2023/03/19 06:48:41;;;;;;;;;47.25;34.25;;;;;9.96;80.90;101181.88;5049716;28;11458;-68
2023/03/19 06:51:08;;;;;;;;;39.00;34.50;;;;;9.96;81.54;101191.81;5052253;28;11575;-68
2023/03/19 06:53:34;;;;;;;;;38.75;31.50;;;;;9.95;81.32;101195.50;5076168;22;11318;-69
2023/03/19 06:56:01;;;;;;;;;30.25;28.75;;;;;9.95;80.97;101201.72;5050531;28;12343;-69
2023/03/19 06:58:27;;;;;;;;;43.25;32.00;;;;;9.93;81.37;101198.41;5052065;28;11286;-70
2023/03/19 07:00:55;;;;;;;;;38.50;30.00;;;;;9.87;81.58;101205.31;5050768;28;11499;-68
2023/03/19 07:03:22;;;;;;;;;24.25;22.25;;;;;9.83;81.72;101212.06;5051307;28;11173;-69
2023/03/19 07:05:51;;;;;;;;;29.50;26.50;;;;;9.87;81.74;101226.81;5051586;28;11122;-70
2023/03/19 07:08:18;;;;;;;;;28.25;24.25;;;;;9.86;82.17;101217.09;5051854;28;11275;-69
2023/03/19 07:10:44;;;;;;;;;30.25;20.75;;;;;9.90;81.61;101228.34;5051834;28;11238;-69
2023/03/19 07:13:11;;;;;;;;;22.50;20.25;;;;;9.85;81.48;101230.72;5051545;28;11122;-68
2023/03/19 07:15:37;;;;;;;;;31.00;23.75;;;;;9.86;81.84;101229.72;5051545;28;11017;-70
2023/03/19 07:18:04;;;;;;;;;29.50;26.75;;;;;9.85;81.73;101245.00;5051528;28;11589;-70
2023/03/19 07:20:31;;;;;;;;;28.00;25.25;;;;;9.83;81.78;101243.50;5051724;28;12328;-70
2023/03/19 07:22:58;;;;;;;;;35.00;26.00;;;;;9.84;81.88;101246.03;5051470;28;11219;-70
2023/03/19 07:25:24;;;;;;;;;34.25;26.00;;;;;9.83;81.74;101252.41;5051414;28;10957;-70
2023/03/19 07:27:51;;;;;;;;;33.25;24.00;;;;;9.79;81.56;101247.56;5051260;28;11137;-68
2023/03/19 07:30:21;;;;;;;;;26.00;24.75;;;;;9.80;81.54;101250.09;5051628;28;11066;-70
2023/03/19 07:32:47;;;;;;;;;32.75;30.25;;;;;9.80;81.76;101252.78;5050947;28;11056;-69
2023/03/19 07:35:14;;;;;;;;;32.75;26.75;;;;;9.79;81.53;101256.47;5050859;28;11122;-70
2023/03/19 07:37:41;;;;;;;;;36.00;29.50;;;;;9.81;81.62;101251.75;5051157;28;11145;-70
2023/03/19 07:40:08;;;;;;;;;34.50;27.25;;;;;9.83;81.57;101255.09;5051351;28;11146;-69
2023/03/19 07:42:35;;;;;;;;;29.50;24.50;;;;;9.83;81.87;101260.47;5044020;28;11187;-70
2023/03/19 07:45:03;;;;;;;;;33.00;23.75;;;;;9.84;81.33;101261.31;5046225;28;11163;-67
2023/03/19 07:47:30;;;;;;;;;26.75;23.00;;;;;9.85;81.36;101263.00;5051034;28;10973;-68
2023/03/19 07:49:57;;;;;;;;;25.50;20.50;;;;;9.85;81.86;101263.84;5049604;28;10994;-69
2023/03/19 07:52:24;;;;;;;;;20.75;18.00;;;;;9.90;81.70;101266.81;5050243;28;11008;-69
2023/03/19 07:54:51;;;;;;;;;21.25;19.00;;;;;9.95;81.73;101263.56;5050597;28;10862;-69
2023/03/19 07:57:18;;;;;;;;;23.25;19.25;;;;;10.01;81.34;101270.09;5049399;28;10859;-67
2023/03/19 07:59:45;;;;;;;;;24.75;15.75;;;;;10.05;81.59;101271.44;5050961;28;10888;-69
2023/03/19 08:02:12;;;;;;;;;16.75;15.75;;;;;10.11;81.43;101259.94;5049350;28;10800;-69
2023/03/19 08:04:39;;;;;;;;;14.50;13.00;;;;;10.14;81.44;101254.19;5065756;28;10844;-68
2023/03/19 08:07:05;;;;;;;;;22.50;15.75;;;;;10.14;81.15;101260.41;5050491;28;10786;-69
2023/03/19 08:09:32;;;;;;;;;17.50;13.50;;;;;10.15;81.12;101263.94;5050576;28;10796;-69
2023/03/19 08:11:59;;;;;;;;;14.75;14.75;;;;;10.17;81.16;101267.28;5049384;28;10883;-69
2023/03/19 08:14:25;;;;;;;;;20.50;18.00;;;;;10.21;81.47;101265.03;5040134;28;10810;-69
2023/03/19 08:16:52;;;;;;;;;16.50;13.25;;;;;10.25;80.94;101269.06;5049494;28;10795;-70
2023/03/19 08:19:18;;;;;;;;;19.25;17.75;;;;;10.28;81.08;101274.94;5050125;28;10812;-70
2023/03/19 08:21:45;;;;;;;;;19.25;16.50;;;;;10.30;81.18;101282.84;5050164;28;10964;-68
2023/03/19 08:24:11;;;;;;;;;28.25;21.25;;;;;10.32;80.85;101289.69;5050133;28;10892;-69
2023/03/19 08:26:38;;;;;;;;;20.25;17.75;;;;;10.34;81.17;101289.53;5045014;28;10823;-67
2023/03/19 08:29:05;;;;;;;;;22.00;13.75;;;;;10.35;81.00;101289.34;5046340;28;10652;-69
2023/03/19 08:31:32;;;;;;;;;18.50;17.00;;;;;10.37;80.97;101298.09;5049664;28;10781;-69
2023/03/19 08:34:03;;;;;;;;;22.75;21.00;;;;;10.34;80.70;101295.75;5050153;28;10702;-69
2023/03/19 08:36:30;;;;;;;;;22.25;19.00;;;;;10.29;80.62;101308.06;5049512;28;10929;-69
2023/03/19 08:38:57;;;;;;;;;27.50;23.75;;;;;10.28;81.02;101309.06;5050299;28;11296;-70
2023/03/19 08:41:24;;;;;;;;;28.50;22.00;;;;;10.28;81.31;101315.28;5065252;28;10863;-69
2023/03/19 08:43:51;;;;;;;;;29.75;22.50;;;;;10.26;80.86;101320.03;5049768;28;10833;-69
2023/03/19 08:46:17;;;;;;;;;39.25;28.00;;;;;10.24;80.99;101319.34;5047806;28;10909;-67
2023/03/19 08:48:44;;;;;;;;;33.25;27.00;;;;;10.22;81.58;101321.38;5048619;28;11316;-69
2023/03/19 08:51:10;;;;;;;;;30.50;25.75;;;;;10.25;81.48;101323.75;5048234;28;11903;-68
2023/03/19 08:53:38;;;;;;;;;22.50;20.50;;;;;10.29;81.84;101324.19;5049706;28;11059;-69
2023/03/19 08:56:06;;;;;;;;;30.25;24.50;;;;;10.30;81.80;101326.72;5065112;28;10713;-69
2023/03/19 08:58:34;;;;;;;;;25.75;23.75;;;;;10.32;81.89;101329.22;5049686;28;10775;-69
2023/03/19 09:01:06;;;;;;;;;33.75;28.25;;;;;10.29;81.73;101330.44;5049800;28;10758;-69
2023/03/19 09:03:33;;;;;;;;;41.75;24.75;;;;;10.23;81.40;101322.22;5049837;28;11585;-68
2023/03/19 09:06:01;;;;;;;;;34.50;28.75;;;;;10.25;81.64;101334.50;5049720;28;11102;-69
2023/03/19 09:08:29;;;;;;;;;30.50;25.00;;;;;10.28;82.07;101338.69;5048249;28;10910;-69
2023/03/19 09:10:56;;;;;;;;;36.00;29.75;;;;;10.28;82.22;101344.06;5049259;28;11033;-69
2023/03/19 09:13:24;;;;;;;;;29.50;27.00;;;;;10.28;82.23;101347.59;5046811;28;11037;-65
2023/03/19 09:15:51;;;;;;;;;39.00;24.75;;;;;10.34;82.37;101343.34;5044832;28;11018;-68
2023/03/19 09:18:19;;;;;;;;;31.75;29.75;;;;;10.39;82.17;101346.34;5048313;28;10956;-68
2023/03/19 09:20:46;;;;;;;;;37.50;31.00;;;;;10.39;81.84;101340.94;5049818;28;11045;-68
2023/03/19 09:23:13;;;;;;;;;46.75;35.50;;;;;10.42;81.92;101343.28;5049156;28;11066;-68
2023/03/19 09:25:40;;;;;;;;;32.75;28.75;;;;;10.43;82.06;101350.34;5049102;28;10969;-68
2023/03/19 09:28:06;;;;;;;;;34.75;31.00;;;;;10.47;81.73;101356.19;5049737;28;11087;-69
2023/03/19 09:30:33;;;;;;;;;37.75;33.25;;;;;10.45;81.73;101355.53;5049517;28;11049;-68
2023/03/19 09:33:00;;;;;;;;;34.25;28.00;;;;;10.49;81.97;101357.69;5043515;28;11432;-69
2023/03/19 09:35:30;;;;;;;;;34.25;25.00;;;;;10.55;82.25;101364.22;5044758;28;11771;-68
2023/03/19 09:37:57;;;;;;;;;42.00;31.25;;;;;10.57;82.09;101365.72;5048616;28;11054;-69
2023/03/19 09:40:37;;;;;;;;;39.75;34.00;;;;;10.58;82.04;101366.53;5049287;28;11255;-70
2023/03/19 09:43:43;;;;;;;;;38.75;35.75;;;;;10.59;82.09;101363.66;5036369;28;11113;-69
2023/03/19 09:46:17;;;;;;;;;38.25;29.75;;;;;10.66;82.37;101379.09;5038717;28;11113;-69
2023/03/19 09:48:51;;;;;;;;;37.75;31.25;;;;;10.70;82.13;101372.34;5048744;28;10910;-69
2023/03/19 09:51:29;;;;;;;;;35.50;31.75;;;;;10.72;82.05;101373.81;5048913;28;10892;-68
2023/03/19 09:54:00;;;;;;;;;31.00;28.50;;;;;10.72;81.89;101376.50;5049270;28;11060;-68
2023/03/19 09:56:26;;;;;;;;;36.00;35.75;;;;;10.71;81.81;101382.91;5048723;28;10928;-67
2023/03/19 09:58:53;;;;;;;;;37.75;32.25;;;;;10.70;82.12;101383.09;5050182;28;11221;-69
2023/03/19 10:01:25;;;;;;;;;33.25;27.75;;;;;10.77;82.28;101392.09;5051052;28;11017;-68
2023/03/19 10:04:16;;;;;;;;;39.75;30.50;;;;;10.77;82.22;101395.63;5052314;28;10935;-67
2023/03/19 10:06:43;;;;;;;;;33.00;27.00;;;;;10.77;82.10;101394.78;5039167;28;10991;-70
2023/03/19 10:09:30;;;;;;;;;39.00;33.50;;;;;10.80;82.12;101397.97;5052444;28;10974;-67
2023/03/19 10:12:10;;;;;;;;;36.50;27.75;;;;;10.80;82.09;101406.03;5044453;28;11069;-67
2023/03/19 10:15:07;;;;;;;;;38.50;30.25;;;;;10.82;82.00;101404.03;5051294;28;10989;-68
2023/03/19 10:17:42;;;;;;;;;36.25;33.00;;;;;10.87;82.54;101395.41;5050262;28;11063;-68
2023/03/19 10:20:28;;;;;;;;;35.25;27.50;;;;;10.91;82.20;101399.41;5047852;28;11044;-69
2023/03/19 10:23:19;;;;;;;;;30.75;27.00;;;;;10.93;82.00;101405.41;5049806;28;10848;-66
2023/03/19 10:25:47;;;;;;;;;32.00;25.25;;;;;10.97;81.76;101404.03;5054148;28;10872;-66
2023/03/19 10:28:15;;;;;;;;;30.75;23.00;;;;;11.00;81.84;101400.16;5053951;28;10707;-69
2023/03/19 10:30:52;;;;;;;;;24.00;18.75;;;;;11.06;81.79;101404.78;5046869;28;10594;-66
2023/03/19 10:33:25;;;;;;;;;27.00;24.50;;;;;11.08;81.71;101410.84;5052372;28;10799;-70
2023/03/19 10:36:00;;;;;;;;;27.75;26.00;;;;;11.06;80.83;101407.47;5050660;28;10978;-69
2023/03/19 10:38:27;;;;;;;;;28.50;25.75;;;;;11.05;81.01;101412.03;5046777;28;10828;-68
2023/03/19 10:41:07;;;;;;;;;26.75;23.00;;;;;11.05;81.24;101406.66;5056332;28;10742;-68
2023/03/19 10:43:35;;;;;;;;;29.00;24.50;;;;;11.05;81.14;101412.03;5036759;28;10878;-69
2023/03/19 10:46:02;;;;;;;;;24.50;22.00;;;;;11.07;81.00;101414.56;5048027;28;10954;-65
2023/03/19 10:48:29;;;;;;;;;28.25;23.25;;;;;11.12;81.18;101412.16;5051276;28;10655;-67
2023/03/19 10:50:59;;;;;;;;;21.25;19.50;;;;;11.14;80.59;101410.13;5051527;28;10760;-68
2023/03/19 10:53:33;;;;;;;;;27.75;23.75;;;;;11.14;79.80;101405.56;5065622;28;10624;-68
2023/03/19 10:56:05;;;;;;;;;26.50;21.25;;;;;11.19;80.44;101412.25;5053096;28;10791;-68
2023/03/19 10:58:35;;;;;;;;;22.25;19.75;;;;;11.30;80.77;101407.25;5050648;28;10675;-68
2023/03/19 11:01:08;;;;;;;;;27.50;22.25;;;;;11.35;79.61;101410.22;5050911;28;10496;-68
2023/03/19 11:03:36;;;;;;;;;26.00;19.00;;;;;11.38;79.65;101412.56;5050365;28;11317;-69
2023/03/19 11:06:11;;;;;;;;;21.00;20.50;;;;;11.39;79.26;101413.38;5048064;28;10570;-65
2023/03/19 11:08:38;;;;;;;;;24.75;19.75;;;;;11.43;79.27;101400.38;5049922;28;10364;-67
2023/03/19 11:11:04;;;;;;;;;28.00;22.00;;;;;11.45;78.89;101409.94;5048151;28;10542;-68
2023/03/19 11:13:34;;;;;;;;;30.00;22.25;;;;;11.44;78.70;101410.13;5051209;28;10582;-69
2023/03/19 11:16:02;;;;;;;;;31.50;20.00;;;;;11.43;78.54;101420.09;5048913;28;10606;-68
2023/03/19 11:18:35;;;;;;;;;27.75;24.75;;;;;11.41;78.73;101427.50;5049406;28;10610;-69
2023/03/19 11:21:20;;;;;;;;;32.25;27.75;;;;;11.31;78.75;101430.47;5047728;28;10908;-68
2023/03/19 11:23:51;;;;;;;;;29.75;25.50;;;;;11.29;79.20;101440.59;5053401;28;10814;-69